Terminal Aerodrome Forecast
Issued by NWS

Home | Current Version | Previous Version | Text Only | Print | Product List | Glossary On
Versions: 1 2 3 4 5 6 7 8 9 10 11 12 13 14 15 16 17 18 19 20 21 22 23 24 25 26 27 28 29 30
000
FTUS42 KRAH 231145 CCA
TAFINT
TAF COR
KINT 231145Z 2312/2412 00000KT 2SM BR SCT002 BKN015
      TEMPO 2312/2314 1/4SM FG VV001
     FM231600 19005KT P6SM FEW035 SCT250
     FM240900 VRB02KT 2SM BR SCT004=

USA.gov is the U.S. government's official web portal to all federal, state and local government web resources and services.